Time;durP1;ratioP1;P1;durP2;ratioP2;P2;SDS_P1;SDS_P2;PMS_P1;PMS_P2;Temp;Humidity;BMP_temperature;BMP_pressure;BME280_temperature;BME280_humidity;BME280_pressure;Samples;Min_cycle;Max_cycle;Signal;HPM_P1;HPM_P2
2023/11/28 00:01:47;;;;;;;20.65;2.78;;;;;;;;;;5074797;28;20863;-40
2023/11/28 00:04:14;;;;;;;30.90;3.30;;;;;;;;;;5090176;28;20024;-41
2023/11/28 00:06:41;;;;;;;27.55;3.65;;;;;;;;;;5091299;28;20116;-42
2023/11/28 00:09:08;;;;;;;28.48;4.15;;;;;;;;;;5091318;28;20181;-43
2023/11/28 00:11:35;;;;;;;45.90;7.15;;;;;;;;;;5077867;28;20490;-42
2023/11/28 00:14:02;;;;;;;44.63;6.88;;;;;;;;;;5088067;28;20078;-40
2023/11/28 00:16:29;;;;;;;41.72;6.15;;;;;;;;;;5096741;28;20123;-45
2023/11/28 00:18:56;;;;;;;41.65;5.68;;;;;;;;;;5087245;28;20024;-44
2023/11/28 00:21:23;;;;;;;35.83;5.20;;;;;;;;;;5088830;28;20082;-44
2023/11/28 00:23:50;;;;;;;28.13;5.47;;;;;;;;;;5089736;28;20032;-46
2023/11/28 00:26:17;;;;;;;44.15;5.97;;;;;;;;;;5089653;28;20538;-43
2023/11/28 00:28:44;;;;;;;35.97;5.20;;;;;;;;;;5084025;28;20436;-45
2023/11/28 00:31:11;;;;;;;36.75;4.65;;;;;;;;;;5084780;28;20402;-43
2023/11/28 00:33:38;;;;;;;41.05;5.57;;;;;;;;;;5112707;28;20058;-44
2023/11/28 00:36:05;;;;;;;51.00;6.05;;;;;;;;;;5089179;28;20024;-44
2023/11/28 00:38:32;;;;;;;33.85;5.30;;;;;;;;;;5084776;28;20057;-43
2023/11/28 00:40:59;;;;;;;37.00;4.60;;;;;;;;;;5085181;28;20025;-44
2023/11/28 00:43:26;;;;;;;37.67;4.88;;;;;;;;;;5081893;28;20605;-44
2023/11/28 00:45:53;;;;;;;24.48;4.22;;;;;;;;;;5080610;28;20368;-42
2023/11/28 00:48:22;;;;;;;31.88;4.93;;;;;;;;;;5114170;28;20119;-40
2023/11/28 00:50:50;;;;;;;36.17;4.70;;;;;;;;;;5087947;28;20032;-42
2023/11/28 00:53:17;;;;;;;35.50;4.80;;;;;;;;;;5089122;28;20032;-42
2023/11/28 00:55:44;;;;;;;41.10;5.32;;;;;;;;;;5081121;28;20457;-41
2023/11/28 00:58:11;;;;;;;40.42;6.07;;;;;;;;;;5083480;28;20478;-41
2023/11/28 01:00:38;;;;;;;39.30;6.97;;;;;;;;;;5084463;28;20119;-39
2023/11/28 01:03:05;;;;;;;44.80;7.07;;;;;;;;;;5076963;28;20064;-40
2023/11/28 01:05:32;;;;;;;51.35;7.78;;;;;;;;;;5082192;28;20036;-40
2023/11/28 01:07:59;;;;;;;42.85;9.32;;;;;;;;;;5089447;28;20023;-39
2023/11/28 01:10:26;;;;;;;54.95;10.60;;;;;;;;;;5082204;28;20367;-40
2023/11/28 01:12:53;;;;;;;53.40;11.90;;;;;;;;;;5085464;28;20039;-39
2023/11/28 01:15:21;;;;;;;54.50;12.65;;;;;;;;;;5084651;28;20036;-40
2023/11/28 01:17:48;;;;;;;46.15;11.35;;;;;;;;;;5078583;28;20135;-39
2023/11/28 01:20:15;;;;;;;45.45;11.55;;;;;;;;;;5084996;28;20035;-40
2023/11/28 01:22:43;;;;;;;41.15;9.35;;;;;;;;;;5090165;28;20403;-40
2023/11/28 01:25:10;;;;;;;32.63;7.25;;;;;;;;;;5088441;28;20036;-41
2023/11/28 01:27:37;;;;;;;30.00;5.70;;;;;;;;;;5109695;28;20035;-40
2023/11/28 01:30:04;;;;;;;31.40;5.47;;;;;;;;;;5087549;28;20028;-40
2023/11/28 01:32:31;;;;;;;26.17;4.60;;;;;;;;;;5082138;28;20052;-40
2023/11/28 01:34:58;;;;;;;24.90;4.43;;;;;;;;;;5083196;28;20118;-39
2023/11/28 01:37:25;;;;;;;20.15;3.40;;;;;;;;;;5093808;28;20046;-40
2023/11/28 01:39:52;;;;;;;28.73;3.63;;;;;;;;;;5082728;28;20032;-39
2023/11/28 01:42:19;;;;;;;21.27;3.35;;;;;;;;;;5085501;28;20390;-42
2023/11/28 01:44:46;;;;;;;22.85;3.88;;;;;;;;;;5092712;28;20036;-41
2023/11/28 01:47:13;;;;;;;12.02;3.28;;;;;;;;;;5074668;28;20029;-41
2023/11/28 01:49:41;;;;;;;26.98;3.97;;;;;;;;;;5093716;28;20097;-41
2023/11/28 01:52:10;;;;;;;21.77;4.00;;;;;;;;;;5108915;28;20020;-41
2023/11/28 01:54:37;;;;;;;24.23;3.20;;;;;;;;;;5093190;28;20032;-42
2023/11/28 01:57:05;;;;;;;15.45;2.80;;;;;;;;;;5092181;28;20531;-42
2023/11/28 01:59:32;;;;;;;22.90;2.75;;;;;;;;;;5092843;28;20040;-42
2023/11/28 02:01:59;;;;;;;25.00;2.95;;;;;;;;;;5092947;28;20119;-42
2023/11/28 02:04:26;;;;;;;17.05;1.88;;;;;;;;;;5093086;28;20407;-42
2023/11/28 02:06:53;;;;;;;22.65;2.53;;;;;;;;;;5093159;28;20020;-43
2023/11/28 02:09:20;;;;;;;20.75;2.45;;;;;;;;;;5093066;28;20074;-42
2023/11/28 02:11:47;;;;;;;13.38;1.90;;;;;;;;;;5091977;28;20032;-42
2023/11/28 02:14:14;;;;;;;18.40;1.80;;;;;;;;;;5090703;28;20039;-42
2023/11/28 02:16:41;;;;;;;12.27;2.03;;;;;;;;;;5090724;28;20036;-42
2023/11/28 02:19:08;;;;;;;12.90;2.05;;;;;;;;;;5092526;28;20103;-43
2023/11/28 02:21:38;;;;;;;16.15;2.25;;;;;;;;;;5088743;28;20044;-42
2023/11/28 02:24:05;;;;;;;14.98;1.98;;;;;;;;;;5092363;28;20055;-44
2023/11/28 02:26:32;;;;;;;11.18;2.20;;;;;;;;;;5090125;28;20863;-42
2023/11/28 02:28:59;;;;;;;12.38;1.80;;;;;;;;;;5091581;28;20024;-42
2023/11/28 02:31:26;;;;;;;18.15;2.17;;;;;;;;;;5092408;28;20118;-43
2023/11/28 02:33:53;;;;;;;7.78;1.60;;;;;;;;;;5092286;28;20044;-42
2023/11/28 02:36:20;;;;;;;11.20;1.50;;;;;;;;;;5089712;28;20105;-42
2023/11/28 02:38:48;;;;;;;12.50;2.03;;;;;;;;;;5092502;28;20032;-42
2023/11/28 02:41:15;;;;;;;9.05;1.60;;;;;;;;;;5092372;28;20048;-42
2023/11/28 02:43:42;;;;;;;16.02;2.05;;;;;;;;;;5092446;28;20082;-42
2023/11/28 02:46:09;;;;;;;15.30;1.77;;;;;;;;;;5092376;28;20032;-42
2023/11/28 02:48:37;;;;;;;13.90;2.03;;;;;;;;;;5092380;28;20544;-42
2023/11/28 02:51:04;;;;;;;15.65;1.52;;;;;;;;;;5092866;28;20043;-42
2023/11/28 02:53:31;;;;;;;12.32;1.70;;;;;;;;;;5092715;28;20059;-42
2023/11/28 02:55:58;;;;;;;11.88;1.50;;;;;;;;;;5092736;28;20028;-42
2023/11/28 02:58:25;;;;;;;13.50;1.73;;;;;;;;;;5092758;28;20486;-42
2023/11/28 03:00:52;;;;;;;12.52;1.80;;;;;;;;;;5092321;28;20046;-42
2023/11/28 03:03:19;;;;;;;14.13;1.45;;;;;;;;;;5092466;28;20062;-42
2023/11/28 03:05:46;;;;;;;13.50;1.63;;;;;;;;;;5092478;28;20417;-42
2023/11/28 03:08:13;;;;;;;18.10;1.80;;;;;;;;;;5092554;28;20032;-42
2023/11/28 03:10:40;;;;;;;12.02;1.77;;;;;;;;;;5091130;28;20032;-42
2023/11/28 03:13:07;;;;;;;7.57;1.60;;;;;;;;;;5092415;28;20028;-42
2023/11/28 03:15:34;;;;;;;14.55;1.90;;;;;;;;;;5092276;28;20036;-42
2023/11/28 03:18:02;;;;;;;14.20;1.73;;;;;;;;;;5092420;28;20382;-42
2023/11/28 03:20:29;;;;;;;16.27;2.17;;;;;;;;;;5092180;28;20050;-42
2023/11/28 03:22:56;;;;;;;9.40;1.83;;;;;;;;;;5092210;28;20028;-42
2023/11/28 03:25:23;;;;;;;12.27;1.60;;;;;;;;;;5092007;28;20024;-42
2023/11/28 03:27:50;;;;;;;20.30;1.98;;;;;;;;;;5092209;28;20035;-42
2023/11/28 03:30:17;;;;;;;12.50;1.80;;;;;;;;;;5090852;28;20675;-42
2023/11/28 03:32:44;;;;;;;16.60;1.88;;;;;;;;;;5091396;28;20028;-42
2023/11/28 03:35:11;;;;;;;15.43;1.50;;;;;;;;;;5091931;28;20096;-42
2023/11/28 03:37:38;;;;;;;22.52;2.20;;;;;;;;;;5092002;28;20145;-42
2023/11/28 03:40:06;;;;;;;23.73;1.67;;;;;;;;;;5092103;28;20032;-43
2023/11/28 03:42:33;;;;;;;14.10;1.73;;;;;;;;;;5092032;28;20444;-42
2023/11/28 03:45:00;;;;;;;18.52;2.63;;;;;;;;;;5091891;28;20032;-42
2023/11/28 03:47:27;;;;;;;14.82;2.00;;;;;;;;;;5091820;28;20036;-42
2023/11/28 03:49:54;;;;;;;13.75;2.10;;;;;;;;;;5092084;28;20036;-42
2023/11/28 03:52:21;;;;;;;11.48;1.92;;;;;;;;;;5091683;28;20039;-42
2023/11/28 03:54:48;;;;;;;24.00;2.35;;;;;;;;;;5091630;28;20024;-42
2023/11/28 03:57:15;;;;;;;15.20;2.30;;;;;;;;;;5091820;28;20374;-42
2023/11/28 03:59:41;;;;;;;13.70;1.80;;;;;;;;;;5091641;28;20111;-42
2023/11/28 04:02:08;;;;;;;15.98;1.95;;;;;;;;;;5091510;28;20129;-42
2023/11/28 04:04:38;;;;;;;11.85;2.15;;;;;;;;;;5091478;28;20449;-42
2023/11/28 04:07:05;;;;;;;15.23;1.70;;;;;;;;;;5091518;28;20020;-42
2023/11/28 04:09:32;;;;;;;17.63;2.22;;;;;;;;;;5091618;28;20027;-42
2023/11/28 04:11:59;;;;;;;11.23;1.70;;;;;;;;;;5091630;28;20052;-42
2023/11/28 04:14:25;;;;;;;11.50;1.80;;;;;;;;;;5091526;28;20063;-43
2023/11/28 04:16:52;;;;;;;14.13;2.08;;;;;;;;;;5091544;28;20077;-42
2023/11/28 04:19:19;;;;;;;13.07;2.13;;;;;;;;;;5091559;28;20094;-43
2023/11/28 04:21:46;;;;;;;15.85;1.98;;;;;;;;;;5091556;28;20040;-42
2023/11/28 04:24:13;;;;;;;9.80;1.55;;;;;;;;;;5091403;28;20024;-42
2023/11/28 04:26:42;;;;;;;16.10;2.47;;;;;;;;;;5091574;28;20107;-42
2023/11/28 04:29:09;;;;;;;13.55;2.03;;;;;;;;;;5091490;28;20028;-42
2023/11/28 04:31:36;;;;;;;12.68;1.50;;;;;;;;;;5091409;28;20523;-42
2023/11/28 04:34:03;;;;;;;8.82;1.33;;;;;;;;;;5091315;28;20032;-42
2023/11/28 04:36:31;;;;;;;12.57;1.83;;;;;;;;;;5091504;28;20067;-43
2023/11/28 04:38:59;;;;;;;13.85;2.58;;;;;;;;;;5091415;28;20048;-43
2023/11/28 04:41:27;;;;;;;20.27;2.13;;;;;;;;;;5091229;28;20047;-44
2023/11/28 04:43:53;;;;;;;24.45;2.47;;;;;;;;;;5092534;28;20074;-43
2023/11/28 04:46:20;;;;;;;23.40;2.42;;;;;;;;;;5095269;28;20497;-43
2023/11/28 04:48:48;;;;;;;22.05;2.47;;;;;;;;;;5095155;28;20060;-42
2023/11/28 04:51:15;;;;;;;16.35;2.40;;;;;;;;;;5095279;28;20478;-42
2023/11/28 04:53:43;;;;;;;20.20;2.97;;;;;;;;;;5094969;28;20514;-42
2023/11/28 04:56:10;;;;;;;21.35;2.85;;;;;;;;;;5095061;28;20080;-42
2023/11/28 04:58:37;;;;;;;16.73;2.53;;;;;;;;;;5095067;28;20020;-42
2023/11/28 05:01:05;;;;;;;19.83;2.97;;;;;;;;;;5094985;28;20056;-42
2023/11/28 05:03:31;;;;;;;18.88;2.85;;;;;;;;;;5094847;28;20100;-42
2023/11/28 05:05:58;;;;;;;19.98;2.83;;;;;;;;;;5095083;28;20481;-42
2023/11/28 05:08:25;;;;;;;17.10;2.90;;;;;;;;;;5094918;28;20016;-42
2023/11/28 05:10:52;;;;;;;19.13;2.92;;;;;;;;;;5094946;28;20039;-42
2023/11/28 05:13:19;;;;;;;16.08;2.72;;;;;;;;;;5094750;28;20022;-43
2023/11/28 05:15:46;;;;;;;16.33;3.30;;;;;;;;;;5094687;28;20023;-42
2023/11/28 05:18:13;;;;;;;17.13;3.33;;;;;;;;;;5094647;28;20413;-42
2023/11/28 05:20:40;;;;;;;14.85;3.05;;;;;;;;;;5094482;28;20039;-42
2023/11/28 05:23:07;;;;;;;20.05;3.28;;;;;;;;;;5094571;28;20032;-42
2023/11/28 05:25:34;;;;;;;14.70;2.67;;;;;;;;;;5094517;28;20020;-42
2023/11/28 05:28:02;;;;;;;11.73;2.63;;;;;;;;;;5094562;28;20024;-42
2023/11/28 05:30:28;;;;;;;12.90;2.83;;;;;;;;;;5093011;28;20449;-42
2023/11/28 05:32:55;;;;;;;13.07;2.67;;;;;;;;;;5081566;28;20536;-42
2023/11/28 05:35:22;;;;;;;10.18;2.13;;;;;;;;;;5074071;28;20032;-42
2023/11/28 05:37:49;;;;;;;12.07;2.13;;;;;;;;;;5074144;28;20383;-42
2023/11/28 05:40:17;;;;;;;11.40;2.20;;;;;;;;;;5073930;28;20017;-42
2023/11/28 05:42:45;;;;;;;13.77;2.90;;;;;;;;;;5073939;28;20116;-42
2023/11/28 05:45:11;;;;;;;9.52;2.05;;;;;;;;;;5073865;28;20025;-42
2023/11/28 05:47:39;;;;;;;11.63;2.35;;;;;;;;;;5073971;28;20021;-42
2023/11/28 05:50:07;;;;;;;10.63;2.60;;;;;;;;;;5073868;28;20031;-42
2023/11/28 05:52:34;;;;;;;12.68;2.60;;;;;;;;;;5073792;28;20086;-42
2023/11/28 05:55:01;;;;;;;12.63;2.65;;;;;;;;;;5073288;28;20035;-42
2023/11/28 05:57:28;;;;;;;18.27;2.88;;;;;;;;;;5073588;28;20021;-42
2023/11/28 05:59:56;;;;;;;13.25;2.80;;;;;;;;;;5073741;28;20117;-42
2023/11/28 06:02:23;;;;;;;10.05;2.22;;;;;;;;;;5086612;28;20063;-42
2023/11/28 06:04:50;;;;;;;13.00;2.42;;;;;;;;;;5093862;28;20032;-43
2023/11/28 06:07:17;;;;;;;13.32;2.25;;;;;;;;;;5093753;28;20020;-42
2023/11/28 06:09:44;;;;;;;15.88;2.55;;;;;;;;;;5093784;28;20031;-44
2023/11/28 06:12:11;;;;;;;10.10;2.58;;;;;;;;;;5093724;28;20029;-46
2023/11/28 06:14:38;;;;;;;8.48;2.35;;;;;;;;;;5093778;28;20085;-44
2023/11/28 06:17:05;;;;;;;6.53;1.90;;;;;;;;;;5093583;28;20024;-44
2023/11/28 06:19:32;;;;;;;7.05;1.90;;;;;;;;;;5093630;28;20020;-44
2023/11/28 06:21:59;;;;;;;7.65;2.33;;;;;;;;;;5093499;28;20609;-44
2023/11/28 06:24:26;;;;;;;7.20;1.90;;;;;;;;;;5093480;28;20047;-44
2023/11/28 06:26:54;;;;;;;7.32;2.13;;;;;;;;;;5093091;28;20086;-44
2023/11/28 06:29:21;;;;;;;6.30;1.90;;;;;;;;;;5093404;28;20031;-44
2023/11/28 06:31:49;;;;;;;6.03;1.98;;;;;;;;;;5093310;28;20039;-44
2023/11/28 06:34:16;;;;;;;6.10;2.10;;;;;;;;;;5093228;28;20024;-45
2023/11/28 06:36:43;;;;;;;7.75;1.73;;;;;;;;;;5093364;28;20481;-44
2023/11/28 06:39:10;;;;;;;7.70;1.88;;;;;;;;;;5093101;28;20028;-44
2023/11/28 06:41:37;;;;;;;9.20;2.08;;;;;;;;;;5093180;28;20104;-44
2023/11/28 06:44:04;;;;;;;8.35;2.22;;;;;;;;;;5093083;28;20034;-44
2023/11/28 06:46:31;;;;;;;5.32;2.10;;;;;;;;;;5093286;28;20032;-44
2023/11/28 06:48:58;;;;;;;8.98;1.65;;;;;;;;;;5092967;28;20377;-44
2023/11/28 06:51:26;;;;;;;7.15;1.80;;;;;;;;;;5092968;28;20032;-42
2023/11/28 06:53:54;;;;;;;9.60;1.98;;;;;;;;;;5092744;28;20036;-42
2023/11/28 06:56:21;;;;;;;4.95;1.73;;;;;;;;;;5092843;28;20437;-42
2023/11/28 06:58:48;;;;;;;6.78;1.55;;;;;;;;;;5092894;28;20020;-41
2023/11/28 07:01:14;;;;;;;5.10;1.85;;;;;;;;;;5092823;28;20046;-42
2023/11/28 07:03:42;;;;;;;9.30;1.95;;;;;;;;;;5092485;28;20048;-42
2023/11/28 07:06:09;;;;;;;8.18;2.15;;;;;;;;;;5092709;28;20024;-42
2023/11/28 07:08:36;;;;;;;6.45;1.65;;;;;;;;;;5091813;28;20401;-42
2023/11/28 07:11:03;;;;;;;6.80;1.95;;;;;;;;;;5092681;28;20485;-42
2023/11/28 07:13:31;;;;;;;5.18;1.95;;;;;;;;;;5092520;28;20409;-42
2023/11/28 07:15:58;;;;;;;5.50;1.83;;;;;;;;;;5092307;28;20134;-42
2023/11/28 07:18:25;;;;;;;4.40;1.48;;;;;;;;;;5092448;28;20466;-42
2023/11/28 07:20:53;;;;;;;8.05;2.25;;;;;;;;;;5092403;28;20477;-42
2023/11/28 07:23:20;;;;;;;5.35;1.45;;;;;;;;;;5092428;28;20103;-42
2023/11/28 07:25:47;;;;;;;5.55;1.35;;;;;;;;;;5092445;28;20031;-42
2023/11/28 07:28:15;;;;;;;5.10;1.90;;;;;;;;;;5092351;28;20032;-42
2023/11/28 07:30:42;;;;;;;6.38;1.38;;;;;;;;;;5092161;28;20070;-42
2023/11/28 07:33:09;;;;;;;8.93;1.95;;;;;;;;;;5092314;28;20052;-42
2023/11/28 07:35:36;;;;;;;5.72;1.77;;;;;;;;;;5092122;28;20503;-42
2023/11/28 07:38:03;;;;;;;6.25;1.80;;;;;;;;;;5092237;28;20017;-42
2023/11/28 07:40:33;;;;;;;6.78;1.65;;;;;;;;;;5092169;28;20385;-42
2023/11/28 07:43:01;;;;;;;7.88;1.85;;;;;;;;;;5092066;28;20063;-42
2023/11/28 07:45:29;;;;;;;4.47;1.50;;;;;;;;;;5092073;28;20089;-42
2023/11/28 07:47:59;;;;;;;6.13;1.70;;;;;;;;;;5092209;28;20401;-44
2023/11/28 07:50:27;;;;;;;6.43;1.70;;;;;;;;;;5092021;28;20137;-43
2023/11/28 07:52:54;;;;;;;7.57;2.10;;;;;;;;;;5091962;28;20016;-45
2023/11/28 07:55:21;;;;;;;9.85;1.77;;;;;;;;;;5091900;28;20028;-45
2023/11/28 07:57:48;;;;;;;7.15;1.85;;;;;;;;;;5091946;28;20035;-45
2023/11/28 08:00:15;;;;;;;10.23;1.67;;;;;;;;;;5091880;28;20535;-45
2023/11/28 08:02:43;;;;;;;10.98;2.10;;;;;;;;;;5091798;28;20458;-45
2023/11/28 08:05:09;;;;;;;12.90;2.03;;;;;;;;;;5091741;28;20515;-44
2023/11/28 08:07:36;;;;;;;5.78;1.80;;;;;;;;;;5091860;28;20458;-45
2023/11/28 08:10:11;;;;;;;7.47;1.83;;;;;;;;;;5091826;28;20095;-45
2023/11/28 08:12:41;;;;;;;8.38;1.90;;;;;;;;;;5091530;28;20032;-45
2023/11/28 08:15:08;;;;;;;6.50;2.08;;;;;;;;;;5091649;28;20069;-45
2023/11/28 08:17:35;;;;;;;10.43;1.88;;;;;;;;;;5091735;28;20428;-45
2023/11/28 08:20:03;;;;;;;8.18;1.80;;;;;;;;;;5094997;28;20059;-44
2023/11/28 08:22:30;;;;;;;5.53;1.98;;;;;;;;;;5095734;28;20048;-44
2023/11/28 08:25:00;;;;;;;3.67;1.45;;;;;;;;;;5095779;28;20099;-44
2023/11/28 08:27:27;;;;;;;9.45;2.30;;;;;;;;;;5095816;28;20020;-44
2023/11/28 08:29:54;;;;;;;6.70;1.75;;;;;;;;;;5095746;28;20028;-44
2023/11/28 08:32:21;;;;;;;8.80;1.85;;;;;;;;;;5095781;28;20038;-45
2023/11/28 08:34:48;;;;;;;5.93;1.60;;;;;;;;;;5095596;28;20559;-44
2023/11/28 08:37:15;;;;;;;7.95;1.80;;;;;;;;;;5095526;28;20024;-44
2023/11/28 08:39:42;;;;;;;7.13;1.88;;;;;;;;;;5095535;28;20044;-45
2023/11/28 08:42:10;;;;;;;5.63;1.70;;;;;;;;;;5095454;28;20071;-44
2023/11/28 08:44:37;;;;;;;5.25;1.38;;;;;;;;;;5095389;28;20024;-44
2023/11/28 08:47:04;;;;;;;6.15;1.85;;;;;;;;;;5095476;28;20024;-44
2023/11/28 08:49:31;;;;;;;9.20;2.13;;;;;;;;;;5093958;28;20404;-44
2023/11/28 08:51:58;;;;;;;9.20;1.73;;;;;;;;;;5095329;28;20085;-45
2023/11/28 08:54:26;;;;;;;5.25;1.63;;;;;;;;;;5095158;28;20427;-45
2023/11/28 08:56:53;;;;;;;6.00;2.00;;;;;;;;;;5095313;28;20099;-45
2023/11/28 08:59:20;;;;;;;5.95;1.60;;;;;;;;;;5095295;28;20112;-42
2023/11/28 09:01:47;;;;;;;4.68;1.85;;;;;;;;;;5094761;28;20398;-42
2023/11/28 09:04:14;;;;;;;7.10;2.00;;;;;;;;;;5094985;28;20036;-45
2023/11/28 09:06:41;;;;;;;6.55;1.60;;;;;;;;;;5095040;28;20802;-45
2023/11/28 09:09:09;;;;;;;6.47;1.70;;;;;;;;;;5094803;28;20024;-45
2023/11/28 09:11:35;;;;;;;9.43;1.98;;;;;;;;;;5094818;28;20078;-45
2023/11/28 09:14:03;;;;;;;8.50;1.95;;;;;;;;;;5094683;28;20032;-45
2023/11/28 09:16:30;;;;;;;6.40;1.65;;;;;;;;;;5094857;28;20028;-45
2023/11/28 09:18:57;;;;;;;10.18;2.13;;;;;;;;;;5094658;28;20036;-44
2023/11/28 09:21:24;;;;;;;7.93;1.77;;;;;;;;;;5094676;28;20039;-45
2023/11/28 09:23:51;;;;;;;9.73;2.00;;;;;;;;;;5094593;28;20024;-45
2023/11/28 09:26:18;;;;;;;10.20;2.20;;;;;;;;;;5094632;28;20030;-45
2023/11/28 09:28:44;;;;;;;9.55;1.90;;;;;;;;;;5094560;28;20545;-45
2023/11/28 09:31:11;;;;;;;9.38;1.80;;;;;;;;;;5093221;28;20028;-45
2023/11/28 09:33:39;;;;;;;11.50;1.90;;;;;;;;;;5093923;28;20550;-42
2023/11/28 09:36:06;;;;;;;11.18;2.28;;;;;;;;;;5094273;28;20107;-42
2023/11/28 09:38:33;;;;;;;9.70;2.17;;;;;;;;;;5093000;28;20035;-45
2023/11/28 09:41:00;;;;;;;6.30;1.80;;;;;;;;;;5093892;28;20568;-45
2023/11/28 09:43:27;;;;;;;8.65;2.10;;;;;;;;;;5092645;28;20027;-42
2023/11/28 09:45:59;;;;;;;6.70;1.48;;;;;;;;;;5091963;28;20482;-42
2023/11/28 09:48:28;;;;;;;9.10;2.05;;;;;;;;;;5093269;28;20028;-43
2023/11/28 09:50:55;;;;;;;8.45;1.70;;;;;;;;;;5093482;28;20043;-42
2023/11/28 09:53:23;;;;;;;9.88;1.80;;;;;;;;;;5092863;28;20103;-45
2023/11/28 09:55:53;;;;;;;15.52;2.30;;;;;;;;;;5093474;28;20035;-45
2023/11/28 09:58:20;;;;;;;12.73;1.98;;;;;;;;;;5090981;28;20111;-45
2023/11/28 10:00:48;;;;;;;14.88;1.88;;;;;;;;;;5093234;28;20028;-46
2023/11/28 10:03:15;;;;;;;11.02;2.13;;;;;;;;;;5093039;28;20451;-45
2023/11/28 10:05:43;;;;;;;11.50;1.90;;;;;;;;;;5093159;28;20020;-45
2023/11/28 10:08:11;;;;;;;9.63;1.90;;;;;;;;;;5093286;28;20016;-45
2023/11/28 10:10:41;;;;;;;9.20;1.80;;;;;;;;;;5093085;28;20470;-45
2023/11/28 10:13:08;;;;;;;11.35;2.28;;;;;;;;;;5093182;28;20027;-45
2023/11/28 10:15:35;;;;;;;6.95;1.52;;;;;;;;;;5092748;28;20050;-45
2023/11/28 10:18:03;;;;;;;7.07;1.80;;;;;;;;;;5093076;28;20022;-45
2023/11/28 10:20:30;;;;;;;10.93;2.40;;;;;;;;;;5092884;28;20024;-44
2023/11/28 10:22:57;;;;;;;8.85;2.13;;;;;;;;;;5092718;28;20437;-44
2023/11/28 10:25:24;;;;;;;8.57;1.70;;;;;;;;;;5092756;28;20382;-46
2023/11/28 10:27:57;;;;;;;7.50;1.50;;;;;;;;;;5092287;28;20084;-45
2023/11/28 10:30:24;;;;;;;9.32;1.90;;;;;;;;;;5089956;28;20027;-45
2023/11/28 10:32:51;;;;;;;8.38;2.00;;;;;;;;;;5092690;28;20016;-44
2023/11/28 10:35:18;;;;;;;6.72;1.75;;;;;;;;;;5092573;28;20511;-45
2023/11/28 10:37:46;;;;;;;7.05;1.77;;;;;;;;;;5090095;28;20026;-45
2023/11/28 10:40:19;;;;;;;11.43;1.85;;;;;;;;;;5092406;28;20032;-45
2023/11/28 10:42:46;;;;;;;6.75;1.90;;;;;;;;;;5089485;28;20097;-46
2023/11/28 10:45:15;;;;;;;7.72;1.95;;;;;;;;;;5092854;28;20028;-45
2023/11/28 10:47:43;;;;;;;10.93;1.60;;;;;;;;;;5093013;28;20029;-45
2023/11/28 10:50:12;;;;;;;6.38;2.65;;;;;;;;;;5093080;28;20089;-45
2023/11/28 10:52:39;;;;;;;6.32;2.22;;;;;;;;;;5093014;28;20089;-44
2023/11/28 10:55:10;;;;;;;11.07;2.17;;;;;;;;;;5092755;28;20660;-45
2023/11/28 10:57:42;;;;;;;8.90;1.73;;;;;;;;;;5092780;28;20024;-45
2023/11/28 11:00:10;;;;;;;11.65;1.98;;;;;;;;;;5092816;28;20390;-45
2023/11/28 11:02:37;;;;;;;9.35;1.90;;;;;;;;;;5092570;28;20155;-45
2023/11/28 11:05:06;;;;;;;11.18;2.47;;;;;;;;;;5091563;28;20394;-45
2023/11/28 11:07:36;;;;;;;14.10;2.40;;;;;;;;;;5091904;28;20036;-44
2023/11/28 11:10:08;;;;;;;21.98;2.72;;;;;;;;;;5091713;28;20024;-42
2023/11/28 11:12:35;;;;;;;;;;;;;;;;;;5093041;28;20031;-42
2023/11/28 11:15:04;;;;;;;5.95;1.88;;;;;;;;;;5092390;28;19953;-45
2023/11/28 11:17:31;;;;;;;9.60;1.77;;;;;;;;;;5091742;28;20035;-45
2023/11/28 11:19:59;;;;;;;7.40;1.35;;;;;;;;;;5092499;28;20024;-45
2023/11/28 11:22:31;;;;;;;20.13;1.80;;;;;;;;;;5092218;28;20050;-46
2023/11/28 11:25:00;;;;;;;8.73;1.65;;;;;;;;;;5090897;28;20028;-43
2023/11/28 11:27:28;;;;;;;15.35;1.85;;;;;;;;;;5092370;28;20048;-42
2023/11/28 11:29:55;;;;;;;13.40;2.50;;;;;;;;;;5092259;28;20497;-42
2023/11/28 11:32:23;;;;;;;12.30;2.22;;;;;;;;;;5092341;28;20039;-42
2023/11/28 11:34:51;;;;;;;283.05;13.85;;;;;;;;;;5087612;28;20031;-43
2023/11/28 11:37:19;;;;;;;19.63;1.85;;;;;;;;;;5090807;28;20491;-39
2023/11/28 11:39:50;;;;;;;9.23;1.80;;;;;;;;;;5090127;28;20060;-40
2023/11/28 11:42:22;;;;;;;16.90;1.55;;;;;;;;;;5091922;28;20374;-40
2023/11/28 11:44:51;;;;;;;7.13;1.33;;;;;;;;;;5091581;28;20076;-40
2023/11/28 11:47:20;;;;;;;5.25;1.38;;;;;;;;;;5091357;28;20480;-41
2023/11/28 11:49:48;;;;;;;9.68;1.65;;;;;;;;;;5090293;28;20537;-40
2023/11/28 11:52:16;;;;;;;10.93;1.35;;;;;;;;;;5091497;28;20540;-42
2023/11/28 11:54:44;;;;;;;322.10;26.88;;;;;;;;;;5091173;28;20031;-44
2023/11/28 11:57:11;;;;;;;94.15;8.90;;;;;;;;;;5091515;28;20051;-43
2023/11/28 11:59:39;;;;;;;45.08;3.22;;;;;;;;;;5090299;28;20024;-43
2023/11/28 12:02:06;;;;;;;21.95;2.90;;;;;;;;;;5091465;28;20052;-41
2023/11/28 12:04:33;;;;;;;23.48;2.47;;;;;;;;;;5091670;28;20039;-40
2023/11/28 12:07:04;;;;;;;5.85;1.50;;;;;;;;;;5091542;28;20074;-40
2023/11/28 12:09:31;;;;;;;36.30;3.42;;;;;;;;;;5091811;28;20035;-40
2023/11/28 12:11:58;;;;;;;20.30;2.40;;;;;;;;;;5091785;28;20031;-40
2023/11/28 12:14:26;;;;;;;8.95;1.20;;;;;;;;;;5091603;28;20453;-40
2023/11/28 12:16:56;;;;;;;17.42;2.05;;;;;;;;;;5090500;28;20051;-40
2023/11/28 12:19:23;;;;;;;4.65;1.10;;;;;;;;;;5091771;28;20043;-40
2023/11/28 12:21:50;;;;;;;3.33;0.95;;;;;;;;;;5091735;28;20025;-40
2023/11/28 12:24:17;;;;;;;7.25;1.00;;;;;;;;;;5091576;28;20107;-40
2023/11/28 12:26:44;;;;;;;3.45;0.90;;;;;;;;;;5091613;28;20445;-40
2023/11/28 12:29:12;;;;;;;6.85;1.10;;;;;;;;;;5091581;28;20393;-40
2023/11/28 12:31:39;;;;;;;9.30;1.15;;;;;;;;;;5091594;28;20032;-40
2023/11/28 12:34:07;;;;;;;4.20;1.02;;;;;;;;;;5091630;28;20024;-40
2023/11/28 12:36:34;;;;;;;4.28;0.90;;;;;;;;;;5091605;28;20048;-39
2023/11/28 12:39:03;;;;;;;5.22;0.77;;;;;;;;;;5091591;28;20107;-39
2023/11/28 12:41:38;;;;;;;4.43;1.10;;;;;;;;;;5091484;28;20089;-39
2023/11/28 12:44:11;;;;;;;18.67;1.92;;;;;;;;;;5091473;28;20482;-39
2023/11/28 12:46:38;;;;;;;25.38;2.30;;;;;;;;;;5091486;28;20103;-39
2023/11/28 12:49:07;;;;;;;14.73;1.40;;;;;;;;;;5091486;28;20024;-39
2023/11/28 12:51:34;;;;;;;6.93;1.10;;;;;;;;;;5091348;28;20043;-39
2023/11/28 12:54:08;;;;;;;6.80;1.27;;;;;;;;;;5090056;28;20070;-39
2023/11/28 12:56:35;;;;;;;18.40;1.60;;;;;;;;;;5091383;28;20032;-39
2023/11/28 12:59:05;;;;;;;10.95;1.33;;;;;;;;;;5091285;28;20043;-39
2023/11/28 13:01:33;;;;;;;20.13;1.80;;;;;;;;;;5091254;28;20028;-39
2023/11/28 13:04:00;;;;;;;19.30;2.10;;;;;;;;;;5091073;28;20048;-39
2023/11/28 13:06:28;;;;;;;9.45;1.60;;;;;;;;;;5094783;28;20024;-39
2023/11/28 13:08:55;;;;;;;7.47;1.38;;;;;;;;;;5094980;28;20419;-39
2023/11/28 13:11:22;;;;;;;5.20;1.00;;;;;;;;;;5094925;28;20105;-40
2023/11/28 13:13:50;;;;;;;4.65;1.10;;;;;;;;;;5094789;28;20031;-39
2023/11/28 13:16:17;;;;;;;5.47;1.30;;;;;;;;;;5095046;28;20154;-39
2023/11/28 13:18:44;;;;;;;3.65;1.30;;;;;;;;;;5094918;28;20028;-39
2023/11/28 13:21:11;;;;;;;7.88;1.30;;;;;;;;;;5094766;28;20074;-39
2023/11/28 13:23:38;;;;;;;7.82;1.23;;;;;;;;;;5094726;28;20024;-39
2023/11/28 13:26:05;;;;;;;9.27;1.13;;;;;;;;;;5094731;28;20032;-40
2023/11/28 13:28:32;;;;;;;6.20;1.10;;;;;;;;;;5094707;28;20502;-39
2023/11/28 13:30:59;;;;;;;7.20;1.10;;;;;;;;;;5094613;28;20109;-40
2023/11/28 13:33:29;;;;;;;2.75;0.90;;;;;;;;;;5094564;28;20028;-39
2023/11/28 13:35:56;;;;;;;3.03;0.90;;;;;;;;;;5094499;28;20059;-39
2023/11/28 13:38:30;;;;;;;5.57;0.98;;;;;;;;;;5094370;28;20091;-40
2023/11/28 13:40:58;;;;;;;4.43;0.95;;;;;;;;;;5093081;28;20508;-39
2023/11/28 13:43:27;;;;;;;8.05;1.15;;;;;;;;;;5094284;28;20119;-39
2023/11/28 13:45:54;;;;;;;5.82;0.95;;;;;;;;;;5094212;28;20077;-39
2023/11/28 13:48:22;;;;;;;7.53;1.63;;;;;;;;;;5094359;28;20103;-39
2023/11/28 13:50:50;;;;;;;5.32;1.13;;;;;;;;;;5090611;28;20446;-39
2023/11/28 13:53:17;;;;;;;3.97;1.00;;;;;;;;;;5092370;28;20036;-40
2023/11/28 13:55:44;;;;;;;5.50;0.90;;;;;;;;;;5094047;28;20032;-39
2023/11/28 13:58:11;;;;;;;8.80;1.40;;;;;;;;;;5093819;28;20032;-37
2023/11/28 14:00:38;;;;;;;6.03;1.05;;;;;;;;;;5093746;28;20031;-35
2023/11/28 14:03:08;;;;;;;7.47;1.13;;;;;;;;;;5093593;28;20144;-35
2023/11/28 14:05:36;;;;;;;5.47;1.08;;;;;;;;;;5093356;28;20064;-35
2023/11/28 14:08:03;;;;;;;4.78;1.10;;;;;;;;;;5093809;28;20115;-36
2023/11/28 14:10:30;;;;;;;6.18;1.45;;;;;;;;;;5093597;28;20083;-36
2023/11/28 14:12:57;;;;;;;5.43;1.15;;;;;;;;;;5093663;28;20565;-35
2023/11/28 14:15:26;;;;;;;7.38;1.42;;;;;;;;;;5093618;28;20081;-36
2023/11/28 14:17:53;;;;;;;7.53;1.20;;;;;;;;;;5092733;28;20040;-35
2023/11/28 14:20:20;;;;;;;6.85;1.30;;;;;;;;;;5093587;28;20505;-35
2023/11/28 14:22:47;;;;;;;10.07;1.30;;;;;;;;;;5093662;28;20035;-36
2023/11/28 14:25:14;;;;;;;6.15;1.40;;;;;;;;;;5093532;28;20024;-39
2023/11/28 14:27:41;;;;;;;4.30;1.00;;;;;;;;;;5093602;28;20027;-39
2023/11/28 14:30:09;;;;;;;1.88;1.05;;;;;;;;;;5093569;28;20100;-39
2023/11/28 14:32:37;;;;;;;3.90;0.80;;;;;;;;;;5093395;28;20036;-40
2023/11/28 14:35:08;;;;;;;5.07;1.38;;;;;;;;;;5093454;28;20074;-39
2023/11/28 14:37:35;;;;;;;2.17;1.17;;;;;;;;;;5093404;28;20020;-39